createdAt,value
2018-02-06T00:00:09.902Z,15.20
2018-02-06T00:02:38.962Z,15.40
2018-02-06T00:05:08.320Z,16.05
2018-02-06T00:07:37.717Z,14.85
2018-02-06T00:10:07.840Z,14.20
2018-02-06T00:12:37.248Z,14.68
2018-02-06T00:15:06.606Z,16.48
2018-02-06T00:17:35.939Z,14.32
2018-02-06T00:20:06.092Z,16.25
2018-02-06T00:22:50.123Z,15.25
2018-02-06T00:25:19.502Z,14.77
2018-02-06T00:27:49.615Z,15.65
2018-02-06T00:30:19.949Z,13.62
2018-02-06T00:32:50.094Z,14.68
2018-02-06T00:35:19.490Z,14.50
2018-02-06T00:37:48.846Z,16.62
2018-02-06T00:40:18.215Z,15.45
2018-02-06T00:42:47.601Z,14.98
2018-02-06T00:45:16.938Z,15.73
2018-02-06T00:47:46.285Z,16.15
2018-02-06T00:50:15.673Z,15.98
2018-02-06T00:52:45.023Z,15.27
2018-02-06T00:55:14.400Z,15.52
2018-02-06T00:57:43.733Z,15.13
2018-02-06T01:00:13.104Z,15.63
2018-02-06T01:02:43.220Z,15.80
2018-02-06T01:05:13.320Z,16.17
2018-02-06T01:07:42.677Z,15.32
2018-02-06T01:10:12.039Z,15.23
2018-02-06T01:12:42.197Z,15.40
2018-02-06T01:15:11.574Z,15.68
2018-02-06T01:17:40.952Z,15.15
2018-02-06T01:20:10.300Z,14.75
2018-02-06T01:22:39.684Z,16.10
2018-02-06T01:25:09.081Z,17.25
2018-02-06T01:27:38.445Z,15.75
2018-02-06T01:30:07.947Z,17.15
2018-02-06T01:32:37.309Z,15.18
2018-02-06T01:35:06.682Z,15.60
2018-02-06T01:37:36.869Z,15.85
2018-02-06T01:40:06.231Z,16.05
2018-02-06T01:42:35.592Z,15.68
2018-02-06T01:45:05.717Z,16.85
2018-02-06T01:47:35.979Z,16.95
2018-02-06T01:50:06.029Z,16.08
2018-02-06T01:52:35.401Z,15.60
2018-02-06T01:55:04.756Z,15.35
2018-02-06T01:57:34.139Z,16.48
2018-02-06T02:00:03.492Z,16.65
2018-02-06T02:02:32.836Z,15.32
2018-02-06T02:05:02.212Z,19.10
2018-02-06T02:07:31.563Z,17.60
2018-02-06T02:10:00.924Z,17.58
2018-02-06T02:12:30.313Z,18.73
2018-02-06T02:15:00.272Z,17.33
2018-02-06T02:17:29.638Z,16.27
2018-02-06T02:19:58.981Z,17.27
2018-02-06T02:22:28.335Z,17.77
2018-02-06T02:24:57.666Z,17.15
2018-02-06T02:27:27.070Z,18.17
2018-02-06T02:29:56.422Z,16.45
2018-02-06T02:32:25.788Z,17.10
2018-02-06T02:34:55.185Z,17.27
2018-02-06T02:37:24.522Z,17.42
2018-02-06T02:39:53.873Z,16.85
2018-02-06T04:39:36.507Z,20.25
2018-02-06T04:42:06.631Z,18.15
2018-02-06T04:44:36.789Z,19.55
2018-02-06T04:47:06.139Z,18.35
2018-02-06T04:49:35.503Z,19.15
2018-02-06T04:52:05.116Z,19.15
2018-02-06T04:54:34.460Z,19.60
2018-02-06T04:57:04.592Z,21.30
2018-02-06T04:59:33.936Z,22.13
2018-02-06T05:02:03.334Z,20.37
2018-02-06T05:04:33.589Z,20.55
2018-02-06T05:07:02.964Z,20.02
2018-02-06T05:09:32.336Z,20.52
2018-02-06T05:12:01.693Z,21.30
2018-02-06T05:14:31.062Z,21.55
2018-02-06T05:17:00.420Z,21.48
2018-02-06T05:19:30.532Z,20.73
2018-02-06T05:22:00.682Z,21.20
2018-02-06T05:24:30.050Z,20.70
2018-02-06T05:27:00.208Z,21.33
2018-02-06T05:29:29.577Z,20.90
2018-02-06T05:31:59.720Z,18.98
2018-02-06T05:34:29.111Z,20.23
2018-02-06T05:36:59.239Z,21.48
2018-02-06T05:39:28.618Z,19.62
2018-02-06T05:41:58.766Z,20.77
2018-02-06T05:44:28.129Z,21.37
2018-02-06T05:46:57.511Z,20.75
2018-02-06T05:49:26.872Z,19.85
2018-02-06T05:51:56.230Z,20.50
2018-02-06T05:54:25.632Z,21.00
2018-02-06T05:56:54.978Z,19.67
2018-02-06T05:59:24.357Z,19.95
2018-02-06T06:01:53.703Z,19.87
2018-02-06T06:04:23.072Z,21.27
2018-02-06T06:06:52.431Z,21.25
2018-02-06T06:09:21.783Z,21.27
2018-02-06T06:11:51.155Z,20.95
2018-02-06T06:14:20.554Z,20.73
2018-02-06T06:16:49.911Z,18.25
2018-02-06T06:19:19.246Z,21.08
2018-02-06T06:21:48.620Z,20.00
2018-02-06T06:24:17.996Z,20.73
2018-02-06T06:26:47.370Z,20.90
2018-02-06T06:29:16.867Z,20.10
2018-02-06T06:31:46.202Z,22.00
2018-02-06T06:34:15.551Z,20.00
2018-02-06T06:36:44.927Z,20.23
2018-02-06T06:39:14.272Z,20.45
2018-02-06T06:41:43.651Z,21.60
2018-02-06T06:44:12.999Z,20.37
2018-02-06T06:46:43.178Z,21.73
2018-02-06T06:49:12.526Z,19.52
2018-02-06T06:51:41.879Z,21.55
2018-02-06T06:54:11.261Z,21.73
2018-02-06T06:56:40.604Z,21.50
2018-02-06T06:59:10.005Z,20.10
2018-02-06T07:01:39.367Z,20.27
2018-02-06T07:04:08.730Z,22.25
2018-02-06T07:06:38.909Z,23.27
2018-02-06T07:09:08.266Z,21.40
2018-02-06T07:11:37.594Z,22.00
2018-02-06T07:14:06.981Z,24.77
2018-02-06T07:16:36.356Z,25.10
2018-02-06T07:19:06.330Z,23.60
2018-02-06T07:21:35.717Z,23.75
2018-02-06T07:24:05.088Z,24.02
2018-02-06T07:26:34.438Z,23.15
2018-02-06T07:29:03.808Z,22.83
2018-02-06T07:31:33.185Z,22.45
2018-02-06T07:34:03.342Z,21.55
2018-02-06T07:36:32.695Z,22.08
2018-02-06T07:39:02.055Z,20.80
2018-02-06T07:41:31.427Z,21.90
2018-02-06T07:44:00.792Z,23.15
2018-02-06T07:46:31.081Z,22.98
2018-02-06T07:49:00.435Z,22.85
2018-02-06T07:51:30.603Z,21.60
2018-02-06T07:53:59.982Z,22.67
2018-02-06T07:56:29.345Z,21.12
2018-02-06T07:58:58.698Z,23.70
2018-02-06T08:01:28.064Z,23.20
2018-02-06T08:03:58.222Z,22.65
2018-02-06T08:06:27.593Z,21.30
2018-02-06T08:08:57.739Z,23.15
2018-02-06T08:11:27.098Z,21.52
2018-02-06T08:13:57.240Z,22.37
2018-02-06T08:16:26.596Z,23.33
2018-02-06T08:18:55.969Z,22.75
2018-02-06T08:21:25.360Z,23.52
2018-02-06T08:23:54.754Z,24.70
2018-02-06T08:26:24.128Z,24.30
2018-02-06T08:28:53.498Z,23.95
2018-02-06T08:31:22.867Z,24.23
2018-02-06T08:33:52.227Z,24.40
2018-02-06T08:36:21.621Z,21.65
2018-02-06T08:38:50.984Z,23.15
2018-02-06T08:41:20.326Z,23.30
2018-02-06T08:43:49.702Z,26.10
2018-02-06T08:46:19.064Z,23.45
2018-02-06T08:48:48.449Z,23.20
2018-02-06T08:51:18.585Z,24.58
2018-02-06T08:53:47.963Z,24.40
2018-02-06T08:56:17.316Z,22.70
2018-02-06T08:58:46.668Z,24.12
2018-02-06T09:01:16.053Z,23.87
2018-02-06T09:03:45.407Z,22.80
2018-02-06T09:06:14.764Z,23.17
2018-02-06T09:08:44.132Z,25.20
2018-02-06T09:11:13.482Z,23.23
2018-02-06T09:13:42.876Z,24.02
2018-02-06T09:16:12.240Z,23.60
2018-02-06T09:18:41.625Z,23.10
2018-02-06T09:21:10.973Z,23.98
2018-02-06T09:23:40.361Z,25.25
2018-02-06T09:26:10.536Z,23.58
2018-02-06T09:28:39.902Z,23.35
2018-02-06T09:31:09.264Z,25.02
2018-02-06T09:33:39.402Z,25.48
2018-02-06T09:36:08.766Z,22.58
2018-02-06T09:38:38.119Z,23.00
2018-02-06T09:41:07.493Z,23.45
2018-02-06T09:43:36.853Z,23.33
2018-02-06T09:46:06.990Z,24.25
2018-02-06T09:48:36.366Z,24.83
2018-02-06T09:51:05.725Z,23.17
2018-02-06T09:53:35.095Z,21.10
2018-02-06T09:56:04.462Z,25.55
2018-02-06T09:58:33.864Z,23.80
2018-02-06T10:01:03.233Z,23.60
2018-02-06T10:03:32.576Z,23.83
2018-02-06T10:06:01.917Z,23.62
2018-02-06T10:08:31.301Z,24.40
2018-02-06T10:11:01.407Z,23.62
2018-02-06T10:13:31.515Z,23.35
2018-02-06T10:16:01.681Z,26.30
2018-02-06T10:18:31.026Z,24.52
2018-02-06T10:21:00.410Z,25.00
2018-02-06T10:23:29.774Z,27.40
2018-02-06T10:25:59.122Z,23.83
2018-02-06T10:28:28.561Z,25.95
2018-02-06T10:30:58.674Z,27.80
2018-02-06T10:33:28.037Z,26.58
2018-02-06T10:35:57.401Z,26.23
2018-02-06T10:38:26.787Z,25.25
2018-02-06T10:40:56.896Z,25.98
2018-02-06T10:43:26.281Z,26.45
2018-02-06T10:45:55.615Z,24.37
2018-02-06T10:48:25.744Z,26.10
2018-02-06T10:50:55.090Z,26.20
2018-02-06T10:53:24.446Z,26.23
2018-02-06T10:55:53.803Z,25.70
2018-02-06T10:58:23.155Z,25.27
2018-02-06T11:00:52.528Z,26.42
2018-02-06T11:03:22.651Z,26.02
2018-02-06T11:05:52.023Z,25.02
2018-02-06T11:08:21.386Z,26.23
2018-02-06T11:10:50.723Z,28.50
2018-02-06T11:13:20.092Z,26.52
2018-02-06T11:15:49.444Z,23.98
2018-02-06T11:18:18.835Z,26.90
2018-02-06T11:20:48.194Z,25.37
2018-02-06T11:23:17.540Z,25.58
2018-02-06T11:25:46.907Z,26.37
2018-02-06T11:28:16.255Z,26.55
2018-02-06T11:30:45.612Z,27.85
2018-02-06T11:33:14.979Z,26.98
2018-02-06T11:35:44.363Z,26.75
2018-02-06T11:38:13.730Z,24.92
2018-02-06T11:40:43.123Z,25.58
2018-02-06T11:43:12.468Z,25.90
2018-02-06T11:45:41.846Z,26.15
2018-02-06T11:48:11.231Z,26.90
2018-02-06T11:50:40.639Z,28.17
2018-02-06T11:53:10.018Z,27.98
2018-02-06T11:55:39.370Z,26.05
2018-02-06T11:58:08.713Z,25.75
2018-02-06T12:00:38.086Z,26.42
2018-02-06T12:03:07.431Z,25.23
2018-02-06T12:05:36.846Z,25.35
2018-02-06T12:08:06.204Z,26.08
2018-02-06T12:10:36.319Z,27.30
2018-02-06T12:13:05.699Z,27.52
2018-02-06T12:15:36.563Z,28.73
2018-02-06T12:18:06.686Z,27.48
2018-02-06T12:20:36.168Z,27.33
2018-02-06T12:23:05.556Z,28.02
2018-02-06T12:25:34.904Z,27.45
2018-02-06T12:28:04.359Z,28.00
2018-02-06T12:30:33.732Z,28.25
2018-02-06T12:33:03.086Z,27.15
2018-02-06T12:35:32.441Z,26.55
2018-02-06T12:38:01.806Z,26.98
2018-02-06T12:40:31.941Z,27.60
2018-02-06T12:43:02.120Z,26.37
2018-02-06T12:45:31.477Z,26.12
2018-02-06T12:48:00.870Z,26.77
2018-02-06T12:50:30.228Z,26.20
2018-02-06T12:52:59.567Z,26.42
2018-02-06T12:55:28.932Z,25.92
2018-02-06T12:57:58.293Z,28.17
2018-02-06T13:00:27.639Z,26.45
2018-02-06T13:02:57.021Z,26.37
2018-02-06T13:05:26.359Z,26.20
2018-02-06T13:07:56.482Z,26.10
2018-02-06T13:10:25.857Z,27.23
2018-02-06T13:12:55.190Z,27.40
2018-02-06T13:15:25.319Z,26.35
2018-02-06T13:17:54.670Z,26.80
2018-02-06T13:20:24.038Z,27.90
2018-02-06T13:22:53.371Z,25.90
2018-02-06T13:25:22.756Z,23.42
2018-02-06T13:27:52.109Z,26.70
2018-02-06T13:30:22.226Z,25.42
2018-02-06T13:32:52.381Z,24.67
2018-02-06T13:35:21.732Z,24.83
2018-02-06T13:37:51.087Z,26.02
2018-02-06T13:40:20.481Z,24.60
2018-02-06T13:42:49.813Z,24.33
2018-02-06T13:45:19.789Z,24.83
2018-02-06T13:47:49.899Z,26.05
2018-02-06T13:50:19.259Z,22.92
2018-02-06T13:52:48.596Z,24.27
2018-02-06T13:55:18.718Z,25.27
2018-02-06T13:57:50.396Z,23.05
2018-02-06T14:00:19.747Z,25.35
2018-02-06T14:02:49.142Z,23.48
2018-02-06T14:05:18.490Z,23.98
2018-02-06T14:07:47.859Z,25.62
2018-02-06T14:10:17.245Z,24.08
2018-02-06T14:12:46.625Z,23.00
2018-02-06T14:15:16.005Z,22.95
2018-02-06T14:17:45.385Z,21.92
2018-02-06T14:20:15.528Z,23.12
2018-02-06T14:22:44.875Z,24.85
2018-02-06T14:25:14.258Z,23.95
2018-02-06T14:27:43.647Z,24.17
2018-02-06T14:30:13.010Z,25.60
2018-02-06T14:32:43.150Z,25.25
2018-02-06T14:35:13.570Z,25.35
2018-02-06T14:37:45.957Z,23.98
2018-02-06T14:40:15.326Z,23.50
2018-02-06T14:42:44.681Z,23.40
2018-02-06T14:45:14.052Z,25.27
2018-02-06T14:47:44.175Z,25.77
2018-02-06T14:50:13.536Z,25.15
2018-02-06T14:52:42.920Z,26.23
2018-02-06T14:55:12.279Z,22.87
2018-02-06T14:57:41.673Z,23.95
2018-02-06T15:00:11.059Z,24.05
2018-02-06T15:02:40.442Z,26.90
2018-02-06T15:05:09.801Z,23.92
2018-02-06T15:07:39.197Z,23.70
2018-02-06T15:10:08.544Z,25.52
2018-02-06T15:12:37.903Z,24.08
2018-02-06T15:15:07.270Z,24.50
2018-02-06T15:17:36.619Z,23.60
2018-02-06T15:20:06.015Z,23.40
2018-02-06T15:22:35.402Z,24.50
2018-02-06T15:25:04.760Z,24.67
2018-02-06T15:27:34.129Z,23.98
2018-02-06T15:30:03.525Z,23.48
2018-02-06T15:32:32.899Z,23.42
2018-02-06T15:35:03.050Z,25.10
2018-02-06T15:37:32.421Z,24.30
2018-02-06T15:40:02.527Z,23.98
2018-02-06T15:42:32.680Z,21.73
2018-02-06T15:45:02.042Z,21.77
2018-02-06T15:47:31.400Z,25.10
2018-02-06T15:50:00.772Z,27.52
2018-02-06T15:52:30.879Z,22.42
2018-02-06T15:55:00.999Z,22.55
2018-02-06T15:57:31.137Z,24.05
2018-02-06T16:00:01.283Z,25.50
2018-02-06T16:02:30.632Z,25.65
2018-02-06T16:05:00.748Z,22.80
2018-02-06T16:07:30.091Z,21.92
2018-02-06T16:09:59.482Z,25.75
2018-02-06T16:12:29.613Z,23.02
2018-02-06T16:14:59.001Z,22.45
2018-02-06T16:17:29.137Z,23.95
2018-02-06T16:19:58.502Z,23.00
2018-02-06T16:22:27.879Z,22.75
2018-02-06T16:24:57.999Z,23.67
2018-02-06T16:27:27.398Z,24.23
2018-02-06T16:29:56.763Z,24.35
2018-02-06T16:32:26.159Z,23.38
2018-02-06T16:34:55.780Z,22.65
2018-02-06T16:37:25.171Z,22.55
2018-02-06T16:39:54.535Z,23.02
2018-02-06T16:42:23.896Z,21.67
2018-02-06T16:44:53.265Z,23.02
2018-02-06T16:47:23.366Z,23.40
2018-02-06T16:49:52.744Z,21.70
2018-02-06T16:52:22.144Z,23.62
2018-02-06T16:54:51.557Z,22.02
2018-02-06T16:57:20.976Z,24.92
2018-02-06T16:59:50.328Z,23.95
2018-02-06T17:02:37.245Z,22.40
2018-02-06T17:05:06.612Z,24.67
2018-02-06T17:07:35.988Z,26.20
2018-02-06T17:10:05.345Z,24.30
2018-02-06T17:12:34.702Z,24.15
2018-02-06T17:15:04.088Z,28.12
2018-02-06T17:17:33.445Z,26.12
2018-02-06T17:20:02.813Z,25.70
2018-02-06T17:22:32.935Z,26.35
2018-02-06T17:25:03.113Z,28.20
2018-02-06T17:27:32.476Z,26.48
2018-02-06T17:30:01.875Z,25.48
2018-02-06T17:32:31.219Z,28.50
2018-02-06T17:35:00.599Z,30.15
2018-02-06T17:37:29.994Z,32.97
2018-02-06T17:39:59.342Z,33.15
2018-02-06T17:42:28.914Z,29.45
2018-02-06T17:44:58.267Z,25.08
2018-02-06T17:47:28.413Z,25.30
2018-02-06T17:49:57.772Z,27.00
2018-02-06T17:52:27.142Z,25.83
2018-02-06T17:54:57.245Z,24.60
2018-02-06T17:57:26.624Z,25.48
2018-02-06T17:59:55.992Z,25.98
2018-02-06T18:02:25.346Z,25.85
2018-02-06T18:04:55.005Z,25.70
2018-02-06T18:07:24.411Z,26.58
2018-02-06T18:09:53.898Z,27.37
2018-02-06T18:12:23.312Z,26.37
2018-02-06T18:14:52.694Z,27.67
2018-02-06T18:17:22.091Z,24.55
2018-02-06T18:19:51.469Z,27.95
2018-02-06T18:22:20.927Z,25.85
2018-02-06T18:24:50.305Z,23.98
2018-02-06T18:27:19.677Z,26.30
2018-02-06T18:29:49.054Z,23.98
2018-02-06T18:32:18.436Z,25.48
2018-02-06T18:34:47.809Z,25.02
2018-02-06T18:37:17.171Z,26.75
2018-02-06T18:39:47.331Z,25.33
2018-02-06T18:42:16.701Z,26.90
2018-02-06T18:44:46.837Z,25.80
2018-02-06T18:47:16.212Z,25.98
2018-02-06T18:49:46.325Z,26.60
2018-02-06T18:52:15.691Z,26.15
2018-02-06T18:54:45.093Z,26.77
2018-02-06T18:57:14.489Z,26.90
2018-02-06T18:59:43.876Z,26.80
2018-02-06T19:02:13.231Z,26.95
2018-02-06T19:04:42.670Z,25.50
2018-02-06T19:07:12.034Z,28.70
2018-02-06T19:09:41.383Z,30.00
2018-02-06T19:12:10.778Z,26.98
2018-02-06T19:14:40.135Z,27.67
2018-02-06T19:17:09.495Z,28.05
2018-02-06T19:19:38.904Z,28.10
2018-02-06T19:22:08.352Z,27.30
2018-02-06T19:24:37.724Z,27.67
2018-02-06T19:27:07.104Z,28.85
2018-02-06T19:29:36.466Z,28.02
2018-02-06T19:32:05.827Z,26.80
2018-02-06T19:34:35.230Z,27.50
2018-02-06T19:37:04.607Z,27.17
2018-02-06T19:39:33.964Z,28.00
2018-02-06T19:42:03.320Z,26.73
2018-02-06T19:44:32.712Z,28.35
2018-02-06T19:47:02.069Z,28.67
2018-02-06T19:49:31.447Z,28.12
2018-02-06T19:52:00.828Z,27.55
2018-02-06T19:54:30.182Z,26.92
2018-02-06T19:56:59.570Z,26.83
2018-02-06T19:59:28.922Z,27.98
2018-02-06T20:01:58.284Z,28.73
2018-02-06T20:04:28.764Z,28.67
2018-02-06T20:06:58.144Z,29.90
2018-02-06T20:09:27.539Z,27.70
2018-02-06T20:11:56.932Z,27.77
2018-02-06T20:14:27.054Z,27.08
2018-02-06T20:16:57.225Z,27.52
2018-02-06T20:19:27.350Z,26.42
2018-02-06T20:21:56.738Z,26.40
2018-02-06T20:24:26.146Z,26.17
2018-02-06T20:26:55.499Z,27.27
2018-02-06T20:29:25.639Z,25.52
2018-02-06T20:31:55.025Z,25.12
2018-02-06T20:34:25.174Z,26.42
2018-02-06T20:36:54.539Z,26.62
2018-02-06T20:39:24.723Z,26.55
2018-02-06T20:41:54.106Z,27.00
2018-02-06T20:44:23.457Z,27.95
2018-02-06T20:46:52.841Z,28.95
2018-02-06T20:49:22.210Z,27.95
2018-02-06T20:51:51.583Z,27.80
2018-02-06T20:54:20.974Z,26.67
2018-02-06T20:56:51.112Z,25.60
2018-02-06T20:59:20.480Z,25.70
2018-02-06T21:01:49.818Z,28.25
2018-02-06T21:04:19.163Z,26.25
2018-02-06T21:06:48.583Z,26.80
2018-02-06T21:09:17.967Z,28.00
2018-02-06T21:11:47.329Z,27.08
2018-02-06T21:14:16.684Z,27.75
2018-02-06T21:16:46.043Z,26.00
2018-02-06T21:19:15.403Z,27.10
2018-02-06T21:21:45.299Z,27.92
2018-02-06T21:24:14.660Z,28.87
2018-02-06T21:26:44.978Z,27.77
2018-02-06T21:29:14.336Z,27.52
2018-02-06T21:31:43.678Z,26.27
2018-02-06T21:34:13.063Z,29.33
2018-02-06T21:36:43.201Z,27.80
2018-02-06T21:39:12.582Z,26.12
2018-02-06T21:41:42.711Z,28.35
2018-02-06T21:44:12.850Z,29.37
2018-02-06T21:46:42.250Z,29.85
2018-02-06T21:49:11.647Z,29.15
2018-02-06T21:51:41.005Z,27.58
2018-02-06T21:54:10.355Z,27.80
2018-02-06T21:56:39.710Z,27.05
2018-02-06T21:59:10.061Z,25.90
2018-02-06T22:01:40.180Z,26.87
2018-02-06T22:04:10.318Z,27.13
2018-02-06T22:06:39.696Z,28.30
2018-02-06T22:09:09.080Z,28.20
2018-02-06T22:11:38.430Z,25.25
2018-02-06T22:14:07.811Z,25.95
2018-02-06T22:16:38.056Z,27.20
2018-02-06T22:19:07.435Z,27.25
2018-02-06T22:21:37.580Z,25.65
2018-02-06T22:24:06.940Z,26.45
2018-02-06T22:26:36.341Z,27.50
2018-02-06T22:29:05.725Z,28.17
2018-02-06T22:31:35.096Z,25.98
2018-02-06T22:34:04.456Z,27.00
2018-02-06T22:36:34.596Z,27.50
2018-02-06T22:39:03.981Z,27.87
2018-02-06T22:41:34.115Z,29.37
2018-02-06T22:44:03.511Z,27.67
2018-02-06T22:46:32.888Z,26.48
2018-02-06T22:49:02.251Z,29.00
2018-02-06T22:51:31.626Z,30.20
2018-02-06T22:54:00.998Z,28.58
2018-02-06T22:56:30.434Z,29.77
2018-02-06T22:59:00.552Z,30.60
2018-02-06T23:01:29.945Z,31.92
2018-02-06T23:04:00.072Z,26.85
2018-02-06T23:06:29.427Z,27.70
2018-02-06T23:08:58.801Z,28.27
2018-02-06T23:11:28.156Z,29.15
2018-02-06T23:13:58.288Z,32.78
2018-02-06T23:16:28.468Z,28.58
2018-02-06T23:18:57.815Z,30.27
2018-02-06T23:21:27.183Z,30.73
2018-02-06T23:23:56.595Z,28.48
2018-02-06T23:26:26.741Z,29.70
2018-02-06T23:28:56.136Z,30.30
2018-02-06T23:31:25.539Z,28.17
2018-02-06T23:33:54.915Z,27.50
2018-02-06T23:36:24.271Z,25.95
2018-02-06T23:38:53.658Z,28.60
2018-02-06T23:41:23.020Z,29.87
2018-02-06T23:43:52.395Z,29.75
2018-02-06T23:46:21.770Z,27.23
2018-02-06T23:48:51.117Z,28.08
2018-02-06T23:51:21.413Z,27.65
2018-02-06T23:53:50.767Z,29.37
2018-02-06T23:56:20.886Z,30.17
2018-02-06T23:58:50.237Z,28.92
